Time;durP1;ratioP1;P1;durP2;ratioP2;P2;SDS_P1;SDS_P2;PMS_P1;PMS_P2;Temp;Humidity;BMP_temperature;BMP_pressure;BME280_temperature;BME280_humidity;BME280_pressure;Samples;Min_cycle;Max_cycle;Signal;HPM_P1;HPM_P2
2022/07/09 00:00:57;;;;;;;8.15;6.85;;;;;;;20.97;52.33;102760.75;4985574;28;124445;-62
2022/07/09 00:03:24;;;;;;;9.43;7.05;;;;;;;20.93;52.69;102764.59;4987198;28;114287;-63
2022/07/09 00:05:52;;;;;;;9.90;7.43;;;;;;;20.90;52.89;102759.38;4987693;28;114046;-62
2022/07/09 00:08:19;;;;;;;9.15;6.97;;;;;;;20.87;52.99;102762.22;4986420;28;124231;-62
2022/07/09 00:10:46;;;;;;;11.90;7.30;;;;;;;20.84;53.15;102754.34;4984062;28;123932;-62
2022/07/09 00:13:13;;;;;;;11.63;7.50;;;;;;;20.80;53.24;102749.13;4986973;28;115931;-62
2022/07/09 00:15:40;;;;;;;9.50;7.15;;;;;;;20.78;53.25;102751.03;4985956;28;115215;-62
2022/07/09 00:18:07;;;;;;;10.82;7.50;;;;;;;20.77;53.37;102741.19;4988129;28;124407;-62
2022/07/09 00:20:34;;;;;;;11.68;8.55;;;;;;;20.74;53.70;102738.72;4978685;28;123722;-62
2022/07/09 00:23:02;;;;;;;9.93;8.18;;;;;;;20.71;53.74;102749.66;4986550;28;113444;-62
2022/07/09 00:25:29;;;;;;;16.90;9.23;;;;;;;20.69;53.93;102751.56;4987973;28;114036;-63
2022/07/09 00:27:56;;;;;;;12.52;8.80;;;;;;;20.66;53.98;102740.97;4984319;28;123810;-63
2022/07/09 00:30:23;;;;;;;11.85;8.98;;;;;;;20.65;53.92;102749.16;4986785;28;124007;-63
2022/07/09 00:32:50;;;;;;;10.18;8.38;;;;;;;20.64;53.91;102745.56;4985211;28;115004;-62
2022/07/09 00:35:17;;;;;;;13.45;9.38;;;;;;;20.61;53.95;102743.06;4987200;28;113678;-62
2022/07/09 00:37:44;;;;;;;14.15;8.88;;;;;;;20.59;53.76;102750.34;4985152;28;124141;-62
2022/07/09 00:40:12;;;;;;;12.23;9.05;;;;;;;20.56;53.82;102739.72;4988639;28;123848;-62
2022/07/09 00:42:39;;;;;;;12.98;8.88;;;;;;;20.53;53.99;102745.28;4983250;28;113354;-63
2022/07/09 00:45:06;;;;;;;13.85;9.13;;;;;;;20.51;53.89;102744.50;4988605;28;114071;-63
2022/07/09 00:47:34;;;;;;;12.77;8.98;;;;;;;20.48;53.96;102747.38;4991349;28;124310;-63
2022/07/09 00:50:01;;;;;;;11.60;8.65;;;;;;;20.43;54.08;102751.19;4989743;28;124717;-63
2022/07/09 00:52:30;;;;;;;12.43;8.45;;;;;;;20.38;54.08;102741.63;4990186;28;114023;-63
2022/07/09 00:55:00;;;;;;;10.85;8.77;;;;;;;20.32;54.31;102745.53;4988158;28;114073;-63
2022/07/09 00:57:29;;;;;;;12.50;8.75;;;;;;;20.28;54.54;102752.03;4984520;28;124644;-63
2022/07/09 00:59:57;;;;;;;10.70;8.23;;;;;;;20.24;54.70;102739.72;4985744;28;124554;-63
2022/07/09 01:02:25;;;;;;;14.32;9.20;;;;;;;20.22;54.73;102741.63;4990318;28;115344;-63
2022/07/09 01:04:52;;;;;;;10.07;7.75;;;;;;;20.19;54.71;102742.69;4988003;28;114932;-63
2022/07/09 01:07:19;;;;;;;12.93;8.43;;;;;;;20.17;54.81;102738.31;4989993;28;123218;-63
2022/07/09 01:09:46;;;;;;;11.57;8.35;;;;;;;20.16;54.75;102741.97;4990803;28;124708;-62
2022/07/09 01:12:14;;;;;;;11.75;8.63;;;;;;;20.13;54.88;102744.84;4986927;28;114383;-62
2022/07/09 01:14:41;;;;;;;10.07;8.32;;;;;;;20.10;55.08;102731.53;4989777;28;113743;-63
2022/07/09 01:17:08;;;;;;;11.90;8.07;;;;;;;20.09;55.14;102735.19;4989314;28;124565;-62
2022/07/09 01:19:35;;;;;;;12.93;8.18;;;;;;;20.09;55.17;102740.56;4991773;28;123093;-62
2022/07/09 01:22:03;;;;;;;12.95;8.48;;;;;;;20.07;55.37;102742.47;4992057;28;113939;-63
2022/07/09 01:24:34;;;;;;;11.35;8.35;;;;;;;20.06;55.39;102735.34;4984073;28;114225;-62
2022/07/09 01:27:02;;;;;;;14.38;9.02;;;;;;;20.03;55.16;102737.25;4991362;28;124435;-62
2022/07/09 01:29:29;;;;;;;11.20;8.32;;;;;;;20.03;55.11;102736.41;4986801;28;123775;-63
2022/07/09 01:31:56;;;;;;;11.27;8.10;;;;;;;20.00;55.14;102732.06;4991883;28;114120;-62
2022/07/09 01:34:23;;;;;;;12.35;8.82;;;;;;;19.98;55.31;102733.94;4990536;28;113819;-63
2022/07/09 01:36:50;;;;;;;12.75;8.93;;;;;;;19.96;55.43;102725.09;4990886;28;124657;-63
2022/07/09 01:39:18;;;;;;;13.05;9.70;;;;;;;19.95;55.51;102723.38;4983961;28;123843;-63
2022/07/09 01:41:45;;;;;;;13.88;10.00;;;;;;;19.93;55.67;102717.22;4991681;28;113714;-62
2022/07/09 01:44:12;;;;;;;13.27;8.98;;;;;;;19.92;55.77;102717.28;4991237;28;113178;-63
2022/07/09 01:46:39;;;;;;;15.25;9.68;;;;;;;19.90;55.85;102709.31;4987554;28;124870;-62
2022/07/09 01:49:06;;;;;;;14.32;9.65;;;;;;;19.88;56.00;102716.59;4977224;28;123701;-62
2022/07/09 01:51:34;;;;;;;14.63;9.75;;;;;;;19.86;56.02;102707.75;4986150;28;115628;-62
2022/07/09 01:54:03;;;;;;;14.48;9.38;;;;;;;19.84;56.24;102709.66;4992105;28;115582;-63
2022/07/09 01:56:30;;;;;;;12.43;9.45;;;;;;;19.81;56.13;102709.81;4987839;28;122941;-62
2022/07/09 01:58:58;;;;;;;17.75;9.63;;;;;;;19.80;56.14;102713.47;4988606;28;124336;-62
2022/07/09 02:01:25;;;;;;;14.88;9.93;;;;;;;19.79;56.23;102711.72;4987232;28;114510;-62
2022/07/09 02:03:52;;;;;;;17.48;10.40;;;;;;;19.77;56.17;102708.25;4988076;28;114084;-62
2022/07/09 02:06:20;;;;;;;14.30;9.10;;;;;;;19.75;56.38;102702.09;4990072;28;123652;-62
2022/07/09 02:08:47;;;;;;;15.93;9.85;;;;;;;19.73;56.38;102706.69;4988727;28;123742;-62
2022/07/09 02:11:15;;;;;;;14.95;10.23;;;;;;;19.71;56.33;102703.16;4991382;28;114791;-62
2022/07/09 02:13:42;;;;;;;16.80;10.60;;;;;;;19.69;56.40;102705.06;4986446;28;114269;-63
2022/07/09 02:16:09;;;;;;;16.27;10.65;;;;;;;19.65;56.32;102697.16;4977964;28;124094;-62
2022/07/09 02:18:36;;;;;;;17.08;10.15;;;;;;;19.63;56.66;102691.00;4985621;28;123723;-62
2022/07/09 02:21:05;;;;;;;13.75;10.38;;;;;;;19.60;56.34;102696.53;4987210;28;114905;-62
2022/07/09 02:23:32;;;;;;;17.73;10.90;;;;;;;19.57;56.51;102691.34;4985999;28;114357;-62
2022/07/09 02:26:00;;;;;;;15.32;11.35;;;;;;;19.54;56.73;102691.50;4987817;28;124420;-62
2022/07/09 02:28:27;;;;;;;14.27;11.10;;;;;;;19.51;56.63;102686.28;4983832;28;123720;-62
2022/07/09 02:30:54;;;;;;;14.95;10.90;;;;;;;19.49;56.72;102688.19;4991636;28;114117;-62
2022/07/09 02:33:22;;;;;;;15.60;10.75;;;;;;;19.47;56.79;102690.09;4984888;28;114358;-63
2022/07/09 02:35:56;;;;;;;15.32;10.70;;;;;;;19.44;56.78;102683.06;4991412;28;124454;-63
2022/07/09 02:38:23;;;;;;;13.27;10.55;;;;;;;19.41;56.78;102690.41;4987475;28;123918;-62
2022/07/09 02:40:50;;;;;;;16.60;11.15;;;;;;;19.38;56.89;102690.56;4990186;28;116090;-62
2022/07/09 02:43:17;;;;;;;14.63;10.68;;;;;;;19.36;57.02;102687.09;4988371;28;115264;-63
2022/07/09 02:45:45;;;;;;;18.33;11.15;;;;;;;19.34;56.96;102689.00;4983341;28;124060;-63
2022/07/09 02:48:12;;;;;;;14.20;11.10;;;;;;;19.32;57.04;102680.16;4989362;28;123634;-62
2022/07/09 02:50:39;;;;;;;18.83;11.32;;;;;;;19.31;57.18;102678.41;4991036;28;115252;-62
2022/07/09 02:53:06;;;;;;;15.38;10.63;;;;;;;19.28;57.16;102681.28;4984507;28;114019;-63
2022/07/09 02:55:33;;;;;;;16.48;10.98;;;;;;;19.25;57.25;102677.78;4985985;28;124645;-63
2022/07/09 02:58:00;;;;;;;14.93;10.75;;;;;;;19.23;57.31;102687.75;4985892;28;124246;-63
2022/07/09 03:00:27;;;;;;;15.60;11.00;;;;;;;19.22;57.37;102674.41;4990885;28;114024;-63
2022/07/09 03:02:55;;;;;;;15.00;11.18;;;;;;;19.21;57.31;102678.91;4988717;28;114777;-63
2022/07/09 03:05:22;;;;;;;19.38;11.48;;;;;;;19.18;57.46;102668.31;4986465;28;124356;-63
2022/07/09 03:07:50;;;;;;;15.50;11.27;;;;;;;19.17;57.66;102671.94;4983780;28;124641;-63
2022/07/09 03:10:17;;;;;;;16.23;11.77;;;;;;;19.16;57.26;102675.59;4989286;28;114387;-63
2022/07/09 03:12:44;;;;;;;18.83;11.88;;;;;;;19.15;57.43;102657.72;4984729;28;114320;-63
2022/07/09 03:15:13;;;;;;;15.88;11.18;;;;;;;19.12;57.69;102663.28;4986360;28;124156;-63
2022/07/09 03:17:40;;;;;;;16.08;11.30;;;;;;;19.09;57.59;102666.09;4984548;28;124086;-63
2022/07/09 03:20:08;;;;;;;16.27;11.23;;;;;;;19.09;57.75;102674.16;4989854;28;114539;-63
2022/07/09 03:22:35;;;;;;;16.00;11.20;;;;;;;19.08;57.60;102671.56;4982847;28;114288;-63
2022/07/09 03:25:04;;;;;;;14.27;10.73;;;;;;;19.07;57.58;102681.44;4984085;28;124129;-62
2022/07/09 03:27:32;;;;;;;16.65;11.38;;;;;;;19.05;57.53;102680.66;4982491;28;123998;-62
2022/07/09 03:29:59;;;;;;;17.50;11.73;;;;;;;19.03;57.61;102685.22;4988067;28;115261;-62
2022/07/09 03:32:27;;;;;;;15.32;11.27;;;;;;;19.01;57.43;102687.13;4985264;28;115463;-63
2022/07/09 03:34:54;;;;;;;16.10;11.15;;;;;;;18.98;57.48;102681.91;4984848;28;123742;-62
2022/07/09 03:37:21;;;;;;;17.17;11.32;;;;;;;18.95;57.55;102692.78;4987293;28;124275;-62
2022/07/09 03:39:48;;;;;;;17.30;11.20;;;;;;;18.94;57.51;102685.69;4988084;28;114919;-63
2022/07/09 03:42:15;;;;;;;15.07;10.95;;;;;;;18.92;57.50;102682.22;4988121;28;113706;-62
2022/07/09 03:44:43;;;;;;;19.20;11.23;;;;;;;18.89;57.53;102687.75;4987443;28;124115;-62
2022/07/09 03:47:10;;;;;;;17.25;11.73;;;;;;;18.86;57.61;102684.28;4989080;28;124463;-62
2022/07/09 03:49:37;;;;;;;17.42;11.75;;;;;;;18.85;57.57;102687.03;4985456;28;114483;-63
2022/07/09 03:52:05;;;;;;;17.45;11.88;;;;;;;18.84;57.86;102682.63;4986890;28;113012;-62
2022/07/09 03:54:48;;;;;;;19.75;12.00;;;;;;;18.82;57.68;102677.31;4979406;28;124017;-63
2022/07/09 03:57:15;;;;;;;20.02;11.82;;;;;;;18.81;57.91;102675.56;4986723;28;123835;-63
2022/07/09 03:59:42;;;;;;;18.48;11.70;;;;;;;18.80;57.94;102679.22;4987646;28;113768;-63
2022/07/09 04:02:09;;;;;;;17.60;11.48;;;;;;;18.80;57.77;102678.31;4981341;28;113827;-62
2022/07/09 04:04:40;;;;;;;18.55;11.85;;;;;;;18.79;58.00;102682.81;4983161;28;123879;-62
2022/07/09 04:07:07;;;;;;;18.63;12.73;;;;;;;18.80;58.21;102679.22;4985900;28;123891;-62
2022/07/09 04:09:35;;;;;;;16.08;11.95;;;;;;;18.81;58.00;102686.31;4987906;28;114251;-63
2022/07/09 04:12:03;;;;;;;19.02;12.85;;;;;;;18.82;58.10;102674.63;4987219;28;114764;-63
2022/07/09 04:14:30;;;;;;;17.92;11.88;;;;;;;18.82;58.28;102669.25;4986285;28;123915;-63
2022/07/09 04:16:57;;;;;;;19.55;11.90;;;;;;;18.84;58.31;102667.38;4987858;28;124164;-63
2022/07/09 04:19:24;;;;;;;17.63;11.60;;;;;;;18.88;58.48;102669.91;4990833;28;115323;-63
2022/07/09 04:21:51;;;;;;;19.75;13.02;;;;;;;18.90;58.47;102678.75;4990109;28;115603;-63
2022/07/09 04:24:19;;;;;;;19.00;13.00;;;;;;;18.92;58.63;102671.50;4990343;28;124658;-63
2022/07/09 04:26:46;;;;;;;17.65;12.55;;;;;;;18.94;58.60;102674.97;4985173;28;123864;-62
2022/07/09 04:29:13;;;;;;;18.58;12.93;;;;;;;18.97;58.55;102674.81;4985229;28;114107;-63
2022/07/09 04:31:40;;;;;;;19.23;12.50;;;;;;;19.00;58.82;102680.00;4990242;28;114380;-64
2022/07/09 04:34:08;;;;;;;21.92;13.10;;;;;;;19.03;58.89;102669.13;4992261;28;123044;-63
2022/07/09 04:36:35;;;;;;;19.00;13.07;;;;;;;19.06;58.90;102677.00;4989561;28;124155;-62
2022/07/09 04:39:03;;;;;;;21.65;13.57;;;;;;;19.10;59.19;102675.91;4990417;28;114036;-63
2022/07/09 04:41:31;;;;;;;22.58;13.80;;;;;;;19.13;59.28;102675.75;4990249;28;113849;-63
2022/07/09 04:43:59;;;;;;;21.25;14.40;;;;;;;19.17;59.28;102671.94;4988924;28;123257;-62
2022/07/09 04:46:27;;;;;;;22.85;14.88;;;;;;;19.23;59.17;102671.63;4989913;28;123390;-62
2022/07/09 04:48:54;;;;;;;22.20;13.70;;;;;;;19.29;59.31;102674.94;4983218;28;114806;-63
2022/07/09 04:51:21;;;;;;;23.85;14.77;;;;;;;19.35;59.46;102674.63;4990821;28;112926;-63
2022/07/09 04:53:48;;;;;;;25.13;14.85;;;;;;;19.43;59.54;102667.00;4987610;28;124563;-63
2022/07/09 04:56:15;;;;;;;22.30;13.82;;;;;;;19.52;59.90;102666.53;4988857;28;123864;-63
2022/07/09 04:58:51;;;;;;;23.45;14.75;;;;;;;19.65;60.06;102662.22;4992057;28;114057;-63
2022/07/09 05:01:19;;;;;;;21.85;14.43;;;;;;;19.79;60.24;102658.78;4987827;28;113833;-63
2022/07/09 05:03:47;;;;;;;22.00;14.30;;;;;;;19.92;60.15;102659.00;4987466;28;124456;-63
2022/07/09 05:06:16;;;;;;;21.10;14.40;;;;;;;20.02;59.95;102660.22;4987751;28;124018;-63
2022/07/09 05:08:43;;;;;;;21.92;14.27;;;;;;;20.13;59.68;102666.81;4990589;28;114534;-63
2022/07/09 05:11:11;;;;;;;23.48;15.05;;;;;;;20.20;59.33;102670.91;4989592;28;114929;-63
2022/07/09 05:13:48;;;;;;;23.05;14.65;;;;;;;20.27;59.44;102669.59;4989682;28;124463;-63
2022/07/09 05:16:15;;;;;;;23.52;14.95;;;;;;;20.33;59.36;102669.25;4986281;28;123907;-63
2022/07/09 05:18:44;;;;;;;21.08;13.98;;;;;;;20.38;59.29;102667.16;4989314;28;114034;-63
2022/07/09 05:21:12;;;;;;;20.63;14.32;;;;;;;20.42;58.99;102668.72;4990791;28;113496;-63
2022/07/09 05:23:39;;;;;;;21.92;14.70;;;;;;;20.46;59.18;102668.56;4986163;28;125065;-63
2022/07/09 05:26:06;;;;;;;22.95;15.15;;;;;;;20.50;59.06;102659.34;4989783;28;125486;-63
2022/07/09 05:28:34;;;;;;;22.77;14.90;;;;;;;20.54;59.06;102667.13;4985787;28;114130;-64
2022/07/09 05:31:01;;;;;;;23.70;14.88;;;;;;;20.61;59.09;102662.31;4990594;28;114550;-64
2022/07/09 05:33:48;;;;;;;24.83;15.35;;;;;;;20.67;58.92;102661.94;4986634;28;124370;-63
2022/07/09 05:36:17;;;;;;;24.70;15.93;;;;;;;20.73;58.88;102655.31;4982117;28;124072;-63
2022/07/09 05:38:47;;;;;;;23.30;15.07;;;;;;;20.77;58.89;102640.69;4983802;28;114630;-63
2022/07/09 05:41:18;;;;;;;22.48;14.50;;;;;;;20.83;58.91;102644.84;4990312;28;114724;-63
2022/07/09 05:43:45;;;;;;;23.15;15.18;;;;;;;20.88;58.87;102642.75;4988881;28;124134;-63
2022/07/09 05:46:12;;;;;;;22.15;13.98;;;;;;;20.96;58.76;102643.16;4980571;28;124291;-63
2022/07/09 05:48:39;;;;;;;20.80;14.18;;;;;;;21.03;58.73;102647.22;4986098;28;114646;-63
2022/07/09 05:51:07;;;;;;;22.05;14.15;;;;;;;21.11;58.83;102650.31;4989262;28;114382;-63
2022/07/09 05:53:34;;;;;;;20.73;14.18;;;;;;;21.17;58.59;102641.88;4983849;28;124368;-63
2022/07/09 05:56:02;;;;;;;20.52;13.30;;;;;;;21.22;58.55;102636.19;4983094;28;123918;-63
2022/07/09 05:58:29;;;;;;;20.83;14.52;;;;;;;21.31;58.50;102645.53;4982187;28;115871;-62
2022/07/09 06:00:56;;;;;;;21.10;14.40;;;;;;;21.37;58.49;102639.75;4986870;28;116421;-62
2022/07/09 06:03:24;;;;;;;20.15;14.18;;;;;;;21.43;58.48;102649.28;4982253;28;124324;-62
2022/07/09 06:05:51;;;;;;;20.42;14.40;;;;;;;21.46;58.52;102644.59;4985855;28;123970;-62
2022/07/09 06:08:18;;;;;;;20.50;13.63;;;;;;;21.52;58.60;102644.22;4983260;28;115189;-62
2022/07/09 06:10:45;;;;;;;23.25;13.85;;;;;;;21.62;58.44;102659.81;4987511;28;114007;-62
2022/07/09 06:13:12;;;;;;;19.73;14.38;;;;;;;21.68;58.27;102667.50;4983698;28;124558;-62
2022/07/09 06:15:39;;;;;;;20.80;14.30;;;;;;;21.76;58.18;102667.91;4989141;28;123775;-62
2022/07/09 06:18:07;;;;;;;20.45;13.45;;;;;;;21.83;58.09;102663.88;4984208;28;114741;-63
2022/07/09 06:20:34;;;;;;;16.98;12.07;;;;;;;21.92;58.24;102663.25;4983685;28;114006;-62
2022/07/09 06:23:06;;;;;;;20.00;12.90;;;;;;;21.97;57.83;102666.53;4981795;28;124640;-62
2022/07/09 06:25:34;;;;;;;17.08;11.70;;;;;;;22.04;57.88;102663.44;4987719;28;123904;-62
2022/07/09 06:28:01;;;;;;;19.20;12.07;;;;;;;22.11;57.76;102656.66;4986816;28;114468;-62
2022/07/09 06:30:29;;;;;;;22.40;12.90;;;;;;;22.17;57.61;102661.69;4986746;28;113752;-62
2022/07/09 06:32:57;;;;;;;17.95;12.88;;;;;;;22.22;57.20;102664.94;4988306;28;124100;-62
2022/07/09 06:35:24;;;;;;;17.65;12.02;;;;;;;22.28;57.40;102659.19;4987916;28;123879;-62
2022/07/09 06:37:51;;;;;;;17.23;12.27;;;;;;;22.35;57.20;102657.78;4980301;28;114623;-62
2022/07/09 06:40:18;;;;;;;17.13;12.52;;;;;;;22.43;57.38;102664.50;4982068;28;114464;-63
2022/07/09 06:42:45;;;;;;;17.33;11.32;;;;;;;22.50;57.30;102660.44;4988459;28;123899;-63
2022/07/09 06:45:22;;;;;;;15.95;10.45;;;;;;;22.60;56.97;102664.25;4984319;28;126469;-63
2022/07/09 06:47:50;;;;;;;14.63;10.48;;;;;;;22.65;56.58;102656.72;4982837;28;115362;-63
2022/07/09 06:50:17;;;;;;;16.02;9.68;;;;;;;22.72;56.66;102659.88;4986961;28;114829;-62
2022/07/09 06:52:45;;;;;;;12.77;9.68;;;;;;;22.81;56.60;102652.97;4982344;28;124076;-62
2022/07/09 06:55:12;;;;;;;15.23;10.20;;;;;;;22.87;56.46;102655.25;4986293;28;122900;-62
2022/07/09 06:57:39;;;;;;;14.43;10.43;;;;;;;22.93;56.23;102657.53;4986889;28;114857;-62
2022/07/09 07:00:07;;;;;;;15.10;9.80;;;;;;;22.98;56.14;102660.78;4990995;28;114245;-62
2022/07/09 07:02:35;;;;;;;14.80;9.32;;;;;;;23.03;55.93;102661.34;4990794;28;124759;-62
2022/07/09 07:05:02;;;;;;;12.35;8.93;;;;;;;23.13;55.92;102657.06;4981063;28;123648;-61
2022/07/09 07:07:29;;;;;;;13.43;8.95;;;;;;;23.25;55.99;102662.59;4980630;28;114270;-62
2022/07/09 07:09:57;;;;;;;13.52;8.82;;;;;;;23.35;55.85;102655.53;4989792;28;115140;-62
2022/07/09 07:12:24;;;;;;;11.88;8.68;;;;;;;23.44;55.58;102660.28;4978384;28;124138;-62
2022/07/09 07:14:51;;;;;;;12.38;8.82;;;;;;;23.54;55.45;102665.06;4986280;28;123811;-62
2022/07/09 07:17:18;;;;;;;10.93;8.60;;;;;;;23.67;55.40;102665.91;4978973;28;114259;-62
2022/07/09 07:19:45;;;;;;;10.20;8.18;;;;;;;23.80;55.26;102661.38;4989136;28;114479;-62
2022/07/09 07:22:13;;;;;;;11.95;8.00;;;;;;;23.95;55.03;102653.13;4980864;28;123891;-62
2022/07/09 07:24:40;;;;;;;11.13;7.80;;;;;;;24.09;54.78;102661.06;4987320;28;124021;-62
2022/07/09 07:27:07;;;;;;;10.02;7.60;;;;;;;24.22;54.23;102661.91;4982457;28;114311;-62
2022/07/09 07:29:34;;;;;;;10.82;7.95;;;;;;;24.35;54.15;102655.56;4972169;28;113254;-62
2022/07/09 07:32:01;;;;;;;10.68;7.93;;;;;;;24.47;54.05;102655.50;4973107;28;124155;-63
2022/07/09 07:34:29;;;;;;;11.13;8.50;;;;;;;24.57;53.87;102661.13;4969219;28;124376;-62
2022/07/09 07:36:56;;;;;;;12.60;8.57;;;;;;;24.66;53.63;102659.56;4989165;28;115289;-62
2022/07/09 07:39:24;;;;;;;10.73;8.13;;;;;;;24.73;53.02;102659.94;4987695;28;115222;-62
2022/07/09 07:41:53;;;;;;;12.40;8.55;;;;;;;24.75;52.84;102663.41;4975869;28;123863;-62
2022/07/09 07:44:20;;;;;;;11.38;8.52;;;;;;;24.76;52.67;102654.31;4978517;28;123867;-63
2022/07/09 07:46:47;;;;;;;11.38;8.10;;;;;;;24.79;52.50;102659.47;4982302;28;114576;-63
2022/07/09 07:49:15;;;;;;;10.52;7.20;;;;;;;24.81;52.47;102657.53;4977637;28;113974;-63
2022/07/09 07:51:42;;;;;;;8.45;6.57;;;;;;;24.84;52.31;102663.56;4987276;28;124498;-62
2022/07/09 07:54:10;;;;;;;9.90;6.80;;;;;;;24.88;52.36;102664.19;4989658;28;123727;-63
2022/07/09 07:56:39;;;;;;;10.20;7.05;;;;;;;24.91;51.84;102650.41;4982132;28;114146;-62
2022/07/09 07:59:07;;;;;;;8.57;6.65;;;;;;;24.95;51.82;102659.16;4970740;28;114612;-62
2022/07/09 08:01:34;;;;;;;9.70;6.88;;;;;;;24.99;51.92;102644.38;4987266;28;124174;-62
2022/07/09 08:04:02;;;;;;;10.52;6.35;;;;;;;25.08;51.92;102646.38;4975603;28;124474;-62
2022/07/09 08:06:29;;;;;;;9.15;6.70;;;;;;;25.20;52.08;102636.41;4985917;28;114280;-62
2022/07/09 08:08:56;;;;;;;9.60;6.68;;;;;;;25.32;51.90;102635.50;4977230;28;114247;-62
2022/07/09 08:11:24;;;;;;;9.50;7.03;;;;;;;25.51;51.55;102634.03;4972927;28;124359;-62
2022/07/09 08:13:51;;;;;;;9.50;6.78;;;;;;;25.67;51.43;102631.78;4988066;28;123821;-62
2022/07/09 08:16:19;;;;;;;10.00;6.47;;;;;;;25.86;51.34;102619.41;4989620;28;113319;-62
2022/07/09 08:18:47;;;;;;;9.07;6.13;;;;;;;26.02;50.76;102622.63;4988137;28;113976;-65
2022/07/09 08:21:15;;;;;;;10.95;6.65;;;;;;;26.13;50.25;102621.75;4983977;28;124313;-65
2022/07/09 08:23:51;;;;;;;9.90;5.97;;;;;;;26.23;49.90;102612.69;4982483;28;123818;-65
2022/07/09 08:26:20;;;;;;;10.00;6.43;;;;;;;26.33;49.97;102617.34;4984301;28;115598;-65
2022/07/09 08:28:48;;;;;;;10.30;7.18;;;;;;;26.46;49.97;102614.44;4986910;28;114775;-65
2022/07/09 08:31:16;;;;;;;11.65;8.00;;;;;;;26.58;49.21;102602.56;4983579;28;124834;-65
2022/07/09 08:33:44;;;;;;;9.57;7.43;;;;;;;26.70;48.92;102595.22;4981762;28;123903;-65
2022/07/09 08:36:12;;;;;;;9.30;7.22;;;;;;;26.83;49.09;102595.03;4985618;28;114724;-65
2022/07/09 08:38:39;;;;;;;11.50;8.30;;;;;;;26.96;48.71;102580.22;4988049;28;112878;-65
2022/07/09 08:41:06;;;;;;;10.93;6.60;;;;;;;27.12;48.16;102589.75;4987580;28;125134;-64
2022/07/09 08:43:36;;;;;;;8.15;5.97;;;;;;;27.21;47.67;102588.94;4984167;28;123991;-64
2022/07/09 08:46:04;;;;;;;11.63;9.27;;;;;;;27.28;47.66;102589.28;4987916;28;113226;-64
2022/07/09 08:48:33;;;;;;;14.15;9.80;;;;;;;27.30;48.13;102588.16;4986572;28;114694;-64
2022/07/09 08:51:02;;;;;;;12.55;10.95;;;;;;;27.36;47.32;102586.72;4988454;28;124130;-64
2022/07/09 08:53:30;;;;;;;12.07;9.77;;;;;;;27.38;47.46;102585.59;4986844;28;123823;-64
2022/07/09 08:55:57;;;;;;;10.65;8.63;;;;;;;27.42;47.60;102590.75;4982817;28;114187;-64
2022/07/09 08:58:25;;;;;;;13.60;9.93;;;;;;;27.46;47.29;102593.06;4984830;28;114083;-64
2022/07/09 09:00:52;;;;;;;12.23;8.95;;;;;;;27.48;47.34;102591.09;4986212;28;123926;-65
2022/07/09 09:03:19;;;;;;;12.68;9.98;;;;;;;27.52;46.93;102591.66;4985677;28;123768;-64
2022/07/09 09:06:09;;;;;;;13.93;10.10;;;;;;;27.54;47.31;102589.69;4992571;28;113353;-64
2022/07/09 09:08:39;;;;;;;15.15;9.70;;;;;;;27.59;46.80;102587.38;4979389;28;114566;-65
2022/07/09 09:11:12;;;;;;;11.30;8.85;;;;;;;27.61;46.48;102590.81;4987515;28;124343;-65
2022/07/09 09:13:44;;;;;;;10.18;8.85;;;;;;;27.61;46.19;102584.53;4979107;28;124124;-64
2022/07/09 09:16:13;;;;;;;11.60;9.05;;;;;;;27.61;46.19;102584.53;4986159;28;115630;-64
2022/07/09 09:18:41;;;;;;;10.55;8.07;;;;;;;27.62;46.07;102575.38;4983539;28;115666;-64
2022/07/09 09:21:10;;;;;;;12.63;8.00;;;;;;;27.61;45.89;102573.63;4983682;28;124573;-64
2022/07/09 09:23:45;;;;;;;11.10;8.73;;;;;;;27.64;46.04;102571.50;4989598;28;124731;-64
2022/07/09 09:26:21;;;;;;;8.68;6.28;;;;;;;27.69;45.89;102571.06;4992885;28;114298;-64
2022/07/09 09:28:52;;;;;;;9.15;7.07;;;;;;;27.73;45.36;102573.38;4986447;28;114007;-65
2022/07/09 09:31:24;;;;;;;9.85;6.90;;;;;;;27.75;45.68;102567.81;4988801;28;124047;-64
2022/07/09 09:33:54;;;;;;;10.15;7.20;;;;;;;27.77;45.17;102573.97;4980385;28;124219;-64
2022/07/09 09:36:38;;;;;;;9.05;6.57;;;;;;;27.77;45.47;102574.81;4981991;28;114281;-64
2022/07/09 09:39:23;;;;;;;9.57;7.35;;;;;;;27.79;45.25;102571.13;4971639;28;113703;-64
2022/07/09 09:41:51;;;;;;;8.10;7.30;;;;;;;27.79;44.99;102571.13;4988621;28;124196;-65
2022/07/09 09:44:28;;;;;;;8.68;6.93;;;;;;;27.75;44.77;102571.38;4991527;28;124756;-64
2022/07/09 09:46:56;;;;;;;10.88;8.68;;;;;;;27.69;44.97;102580.13;4987595;28;114905;-64
2022/07/09 09:49:25;;;;;;;12.82;9.15;;;;;;;27.58;44.65;102585.69;4977936;28;113892;-64
2022/07/09 09:52:09;;;;;;;11.02;9.35;;;;;;;27.48;44.78;102582.03;4984772;28;123611;-64
2022/07/09 09:54:39;;;;;;;10.73;9.40;;;;;;;27.40;44.86;102576.44;4990921;28;123825;-64
2022/07/09 09:57:10;;;;;;;14.25;9.00;;;;;;;27.35;45.47;102575.00;4979140;28;114634;-64
2022/07/09 09:59:41;;;;;;;20.73;12.43;;;;;;;27.38;46.14;102569.25;4990584;28;113202;-64
2022/07/09 10:02:09;;;;;;;15.20;10.13;;;;;;;27.44;46.26;102577.88;4989755;28;124306;-64
2022/07/09 10:04:42;;;;;;;13.27;9.50;;;;;;;27.48;46.07;102569.31;4972018;28;123928;-65
2022/07/09 10:07:13;;;;;;;18.90;11.98;;;;;;;27.54;46.28;102567.91;4982001;28;113935;-64
2022/07/09 10:09:40;;;;;;;11.40;8.48;;;;;;;27.60;46.30;102567.34;4990631;28;115054;-63
2022/07/09 10:12:11;;;;;;;9.48;8.45;;;;;;;27.70;46.22;102568.22;4991682;28;123429;-63
2022/07/09 10:14:39;;;;;;;11.20;8.23;;;;;;;27.88;45.98;102564.81;4986240;28;124066;-64
2022/07/09 10:17:10;;;;;;;11.27;8.07;;;;;;;28.00;45.53;102562.84;4986781;28;115095;-64
2022/07/09 10:19:37;;;;;;;12.18;8.82;;;;;;;28.04;44.54;102558.84;4988022;28;114548;-64
2022/07/09 10:22:05;;;;;;;11.18;8.52;;;;;;;27.98;44.19;102549.38;4979634;28;123840;-64
2022/07/09 10:24:33;;;;;;;11.68;8.02;;;;;;;27.96;44.55;102562.28;4988654;28;123527;-64
2022/07/09 10:27:06;;;;;;;11.57;8.43;;;;;;;27.92;44.12;102556.25;4978745;28;114434;-64
2022/07/09 10:29:35;;;;;;;12.20;7.93;;;;;;;27.86;44.40;102572.25;4989015;28;114104;-63
2022/07/09 10:32:03;;;;;;;10.88;7.70;;;;;;;27.79;44.51;102560.22;4986681;28;124031;-63
2022/07/09 10:34:35;;;;;;;10.00;7.40;;;;;;;27.74;44.59;102561.47;4989545;28;123913;-63
2022/07/09 10:37:04;;;;;;;9.15;7.88;;;;;;;27.71;44.49;102563.66;4989313;28;114864;-63
2022/07/09 10:39:33;;;;;;;9.82;7.90;;;;;;;27.65;44.68;102554.19;4987455;28;112807;-63
2022/07/09 10:42:06;;;;;;;11.75;7.70;;;;;;;27.59;45.07;102554.72;4986985;28;124692;-63
2022/07/09 10:44:37;;;;;;;10.98;8.70;;;;;;;27.59;44.60;102557.44;4987187;28;124260;-63
2022/07/09 10:47:05;;;;;;;12.50;8.52;;;;;;;27.52;44.49;102556.25;4985440;28;114241;-63
2022/07/09 10:49:36;;;;;;;9.05;7.50;;;;;;;27.46;45.00;102537.78;4989361;28;114408;-63
2022/07/09 10:52:08;;;;;;;9.55;7.68;;;;;;;27.54;45.15;102546.97;4986367;28;124003;-63
2022/07/09 10:54:48;;;;;;;10.25;8.20;;;;;;;27.63;45.19;102545.25;4984275;28;123805;-64
2022/07/09 10:57:15;;;;;;;9.00;7.88;;;;;;;27.69;45.00;102555.63;4987400;28;114730;-63
2022/07/09 10:59:47;;;;;;;13.30;9.40;;;;;;;27.71;44.59;102548.16;4986792;28;115000;-63
2022/07/09 11:02:21;;;;;;;10.35;8.63;;;;;;;27.66;44.49;102550.44;4985128;28;124088;-63
2022/07/09 11:04:50;;;;;;;9.90;8.73;;;;;;;27.63;44.54;102550.72;4988069;28;124613;-63
2022/07/09 11:07:24;;;;;;;11.55;8.52;;;;;;;27.60;44.83;102550.16;4986288;28;114243;-63
2022/07/09 11:09:52;;;;;;;12.33;9.83;;;;;;;27.58;44.80;102550.28;4987105;28;114014;-63
2022/07/09 11:12:21;;;;;;;12.65;9.82;;;;;;;27.53;45.16;102544.38;4988691;28;124135;-63